createdAt,value
2022-11-16T00:01:42.657Z,99277.72
2022-11-16T00:04:12.010Z,99268.78
2022-11-16T00:06:38.983Z,99263.81
2022-11-16T00:09:28.763Z,99261.00
2022-11-16T00:11:57.430Z,99252.84
2022-11-16T00:14:27.351Z,99251.47
2022-11-16T00:16:54.494Z,99252.03
2022-11-16T00:19:21.685Z,99244.47
2022-11-16T00:21:48.572Z,99256.25
2022-11-16T00:24:17.087Z,99253.44
2022-11-16T00:26:44.199Z,99253.66
2022-11-16T00:29:27.941Z,99246.50
2022-11-16T00:31:55.539Z,99245.72
2022-11-16T00:34:23.199Z,99244.72
2022-11-16T00:36:50.466Z,99233.97
2022-11-16T00:39:18.016Z,99235.75
2022-11-16T00:41:46.155Z,99226.44
2022-11-16T00:44:13.103Z,99227.03
2022-11-16T00:46:40.467Z,99221.47
2022-11-16T00:49:07.780Z,99210.34
2022-11-16T00:51:35.822Z,99202.19
2022-11-16T00:54:03.680Z,99198.00
2022-11-16T00:56:32.640Z,99193.44
2022-11-16T00:58:59.246Z,99189.66
2022-11-16T01:01:26.444Z,99198.81
2022-11-16T01:03:53.186Z,99184.53
2022-11-16T01:06:20.383Z,99184.53
2022-11-16T01:08:47.392Z,99181.72
2022-11-16T01:11:34.564Z,99185.88
2022-11-16T01:14:04.379Z,99174.78
2022-11-16T01:16:31.485Z,99171.78
2022-11-16T01:18:58.206Z,99167.19
2022-11-16T01:21:25.554Z,99165.22
2022-11-16T01:23:52.821Z,99172.97
2022-11-16T01:26:19.661Z,99164.41
2022-11-16T01:28:46.518Z,99161.44
2022-11-16T01:31:13.818Z,99165.22
2022-11-16T01:33:42.116Z,99162.03
2022-11-16T01:36:17.370Z,99150.16
2022-11-16T01:38:46.681Z,99149.34
2022-11-16T01:41:23.892Z,99144.34
2022-11-16T01:43:58.806Z,99155.28
2022-11-16T01:46:31.160Z,99156.88
2022-11-16T01:49:12.615Z,99154.13
2022-11-16T01:51:41.513Z,99157.06
2022-11-16T01:54:12.379Z,99159.25
2022-11-16T01:56:47.974Z,99150.94
2022-11-16T01:59:24.709Z,99154.69
2022-11-16T02:01:52.301Z,99140.97
2022-11-16T02:04:20.698Z,99153.88
2022-11-16T02:07:25.024Z,99146.13
2022-11-16T02:10:06.977Z,99148.13
2022-11-16T02:12:47.915Z,99143.97
2022-11-16T02:15:30.981Z,99140.97
2022-11-16T02:18:38.435Z,99145.34
2022-11-16T02:21:28.291Z,99136.59
2022-11-16T02:24:16.663Z,99130.28
2022-11-16T02:27:20.925Z,99120.31
2022-11-16T02:29:54.838Z,99121.09
2022-11-16T02:33:00.320Z,99114.78
2022-11-16T02:35:36.594Z,99113.19
2022-11-16T02:38:12.124Z,99113.97
2022-11-16T02:40:42.457Z,99113.94
2022-11-16T02:43:12.895Z,99104.19
2022-11-16T02:45:51.783Z,99098.84
2022-11-16T02:48:28.832Z,99092.25
2022-11-16T02:50:57.749Z,99095.22
2022-11-16T02:53:25.792Z,99086.09
2022-11-16T02:55:54.144Z,99081.31
2022-11-16T02:58:26.730Z,99074.38
2022-11-16T03:01:01.179Z,99076.94
2022-11-16T03:03:40.821Z,99067.00
2022-11-16T03:06:12.938Z,99059.44
2022-11-16T03:08:44.993Z,99055.44
2022-11-16T03:11:31.785Z,99048.06
2022-11-16T03:14:05.273Z,99055.41
2022-11-16T03:16:38.486Z,99047.66
2022-11-16T03:19:10.623Z,99039.91
2022-11-16T03:21:41.365Z,99043.56
2022-11-16T03:24:08.886Z,99047.31
2022-11-16T03:26:49.078Z,99038.38
2022-11-16T03:29:20.634Z,99041.75
2022-11-16T03:31:55.252Z,99041.53
2022-11-16T03:34:29.644Z,99045.75
2022-11-16T03:36:57.865Z,99042.97
2022-11-16T03:39:30.809Z,99034.63
2022-11-16T03:42:00.398Z,99028.88
2022-11-16T03:44:28.037Z,99030.50
2022-11-16T03:46:54.752Z,99027.31
2022-11-16T03:49:23.735Z,99023.31
2022-11-16T03:51:52.880Z,99022.09
2022-11-16T03:54:19.725Z,99017.69
2022-11-16T03:56:46.387Z,99014.13
2022-11-16T03:59:13.154Z,99016.13
2022-11-16T04:01:44.577Z,99029.63
2022-11-16T04:04:33.241Z,99021.31
2022-11-16T04:07:19.096Z,99015.00
2022-11-16T04:10:04.289Z,99012.22
2022-11-16T04:12:50.160Z,99006.25
2022-11-16T04:15:35.523Z,99011.44
2022-11-16T04:18:20.730Z,99012.03
2022-11-16T04:21:06.886Z,99012.59
2022-11-16T04:23:52.165Z,99004.06
2022-11-16T04:26:19.015Z,98993.91
2022-11-16T04:28:47.762Z,98988.38
2022-11-16T04:31:35.731Z,98985.59
2022-11-16T04:34:27.428Z,98986.59
2022-11-16T04:37:16.137Z,98985.16
2022-11-16T04:39:43.255Z,98982.38
2022-11-16T04:42:19.976Z,98988.72
2022-11-16T04:45:08.336Z,98991.09
2022-11-16T04:47:48.022Z,98989.72
2022-11-16T04:50:15.343Z,98990.91
2022-11-16T04:52:42.540Z,98982.38
2022-11-16T04:55:12.147Z,98976.00
2022-11-16T04:57:40.087Z,98976.19
2022-11-16T05:00:08.424Z,98969.66
2022-11-16T05:02:36.731Z,98968.84
2022-11-16T05:05:04.900Z,98962.84
2022-11-16T05:07:32.645Z,98960.06
2022-11-16T05:10:09.741Z,98960.63
2022-11-16T05:12:36.650Z,98947.34
2022-11-16T05:15:06.736Z,98953.34
2022-11-16T05:17:34.309Z,98955.72
2022-11-16T05:20:20.232Z,98954.50
2022-11-16T05:22:55.090Z,98957.50
2022-11-16T05:25:23.699Z,98963.69
2022-11-16T05:27:50.683Z,98960.09
2022-11-16T05:30:17.713Z,98956.91
2022-11-16T05:32:44.664Z,98954.31
2022-11-16T05:35:13.015Z,98959.31
2022-11-16T05:37:39.751Z,98953.34
2022-11-16T05:40:07.589Z,98958.97
2022-11-16T05:42:50.257Z,98951.09
2022-11-16T05:45:21.133Z,98951.63
2022-11-16T05:47:48.715Z,98954.59
2022-11-16T05:50:16.691Z,98954.97
2022-11-16T05:52:46.431Z,98958.53
2022-11-16T05:55:13.102Z,98958.16
2022-11-16T05:57:42.768Z,98959.13
2022-11-16T06:00:10.881Z,98958.16
2022-11-16T06:02:52.423Z,98963.47
2022-11-16T06:05:27.809Z,98962.06
2022-11-16T06:07:55.860Z,98960.25
2022-11-16T06:10:23.442Z,98953.88
2022-11-16T06:12:52.936Z,98945.75
2022-11-16T06:15:22.031Z,98935.81
2022-11-16T06:17:49.041Z,98925.72
2022-11-16T06:20:16.435Z,98925.91
2022-11-16T06:22:44.281Z,98920.31
2022-11-16T06:25:11.975Z,98930.41
2022-11-16T06:27:43.353Z,98936.97
2022-11-16T06:30:13.617Z,98930.22
2022-11-16T06:32:40.567Z,98933.00
2022-11-16T06:35:08.906Z,98931.41
2022-11-16T06:37:37.863Z,98945.72
2022-11-16T06:40:05.087Z,98940.94
2022-11-16T06:42:35.790Z,98929.22
2022-11-16T06:45:03.298Z,98937.75
2022-11-16T06:47:37.628Z,98936.53
2022-11-16T06:50:05.142Z,98926.91
2022-11-16T06:52:33.506Z,98918.00
2022-11-16T06:55:00.705Z,98909.09
2022-11-16T06:57:31.242Z,98915.66
2022-11-16T06:59:57.973Z,98916.25
2022-11-16T07:02:24.747Z,98920.81
2022-11-16T07:04:51.528Z,98921.00
2022-11-16T07:07:18.494Z,98916.22
2022-11-16T07:09:45.966Z,98906.66
2022-11-16T07:12:15.572Z,98908.59
2022-11-16T07:14:42.914Z,98910.94
2022-11-16T07:17:11.358Z,98902.59
2022-11-16T07:19:40.161Z,98900.59
2022-11-16T07:22:07.565Z,98903.75
2022-11-16T07:24:34.481Z,98904.50
2022-11-16T07:27:02.328Z,98904.88
2022-11-16T07:29:34.536Z,98905.06
2022-11-16T07:32:13.339Z,98895.66
2022-11-16T07:35:11.073Z,98892.88
2022-11-16T07:37:39.344Z,98897.06
2022-11-16T07:40:07.980Z,98895.66
2022-11-16T07:42:34.701Z,98888.09
2022-11-16T07:45:18.188Z,98895.34
2022-11-16T07:47:53.517Z,98893.03
2022-11-16T07:50:43.935Z,98886.00
2022-11-16T07:53:11.383Z,98890.78
2022-11-16T07:55:39.795Z,98891.38
2022-11-16T07:58:09.605Z,98888.66
2022-11-16T08:00:36.394Z,98887.06
2022-11-16T08:03:12.720Z,98884.28
2022-11-16T08:05:40.859Z,98887.44
2022-11-16T08:08:10.506Z,98884.63
2022-11-16T08:10:38.827Z,98888.78
2022-11-16T08:13:07.811Z,98884.63
2022-11-16T08:15:36.940Z,98889.84
2022-11-16T08:18:09.002Z,98879.69
2022-11-16T08:20:36.898Z,98871.94
2022-11-16T08:23:05.360Z,98875.53
2022-11-16T08:25:35.685Z,98871.69
2022-11-16T08:28:03.758Z,98859.00
2022-11-16T08:30:31.874Z,98859.94
2022-11-16T08:33:00.663Z,98864.84
2022-11-16T08:35:29.581Z,98864.13
2022-11-16T08:37:56.965Z,98860.50
2022-11-16T08:40:25.405Z,98868.81
2022-11-16T08:42:57.046Z,98869.78
2022-11-16T08:45:27.546Z,98868.34
2022-11-16T08:48:03.384Z,98870.66
2022-11-16T08:50:44.192Z,98872.97
2022-11-16T08:53:19.508Z,98863.75
2022-11-16T08:55:46.520Z,98878.25
2022-11-16T08:58:13.957Z,98874.06
2022-11-16T09:00:40.788Z,98877.84
2022-11-16T09:03:07.522Z,98880.53
2022-11-16T09:05:34.273Z,98889.06
2022-11-16T09:08:01.079Z,98885.03
2022-11-16T09:10:27.960Z,98885.31
2022-11-16T09:12:54.906Z,98892.78
2022-11-16T09:15:21.748Z,98884.81
2022-11-16T09:17:48.636Z,98891.56
2022-11-16T09:20:15.764Z,98891.50
2022-11-16T09:22:45.108Z,98889.59
2022-11-16T09:25:15.753Z,98892.41
2022-11-16T09:27:56.416Z,98889.59
2022-11-16T09:30:23.318Z,98886.31
2022-11-16T09:32:50.179Z,98887.47
2022-11-16T09:35:17.481Z,98879.06
2022-11-16T09:37:44.334Z,98879.84
2022-11-16T09:40:12.605Z,98888.34
2022-11-16T09:43:10.051Z,98886.94
2022-11-16T09:45:58.846Z,98882.66
2022-11-16T09:48:26.204Z,98885.09
2022-11-16T09:50:59.509Z,98887.94
2022-11-16T09:53:38.585Z,98891.22
2022-11-16T09:56:11.038Z,98887.34
2022-11-16T09:58:58.746Z,98881.59
2022-11-16T10:01:56.058Z,98873.09
2022-11-16T10:04:44.387Z,98868.19
2022-11-16T10:07:25.656Z,98871.91
2022-11-16T10:09:52.726Z,98874.97
2022-11-16T10:12:35.184Z,98861.59
2022-11-16T10:15:11.791Z,98855.75
2022-11-16T10:17:49.386Z,98851.25
2022-11-16T10:20:39.724Z,98838.81
2022-11-16T10:23:46.516Z,98830.47
2022-11-16T10:26:32.449Z,98828.25
2022-11-16T10:29:14.551Z,98826.72
2022-11-16T10:32:15.512Z,98831.25
2022-11-16T10:35:01.890Z,98825.78
2022-11-16T10:37:34.095Z,98824.91
2022-11-16T10:40:15.913Z,98815.59
2022-11-16T10:42:43.814Z,98814.72
2022-11-16T10:45:20.585Z,98813.25
2022-11-16T10:47:50.732Z,98813.00
2022-11-16T10:50:32.410Z,98818.72
2022-11-16T10:53:01.074Z,98820.03
2022-11-16T10:55:31.032Z,98818.44
2022-11-16T10:58:08.211Z,98819.63
2022-11-16T11:00:38.158Z,98820.19
2022-11-16T11:03:05.388Z,98809.38
2022-11-16T11:05:34.248Z,98808.09
2022-11-16T11:08:13.509Z,98810.34
2022-11-16T11:10:42.037Z,98809.44
2022-11-16T11:13:08.964Z,98810.13
2022-11-16T11:15:35.683Z,98814.41
2022-11-16T11:18:24.730Z,98812.03
2022-11-16T11:21:20.137Z,98811.25
2022-11-16T11:23:52.505Z,98810.16
2022-11-16T11:26:36.228Z,98816.72
2022-11-16T11:29:25.582Z,98804.38
2022-11-16T11:32:00.623Z,98804.50
2022-11-16T11:34:34.890Z,98803.19
2022-11-16T11:37:12.658Z,98802.13
2022-11-16T11:39:41.939Z,98799.72
2022-11-16T11:42:14.746Z,98809.09
2022-11-16T11:44:50.464Z,98807.75
2022-11-16T11:47:57.311Z,98810.84
2022-11-16T11:50:44.682Z,98801.00
2022-11-16T11:53:37.145Z,98797.41
2022-11-16T11:56:04.455Z,98797.19
2022-11-16T11:58:34.988Z,98800.91
2022-11-16T12:01:08.137Z,98800.22
2022-11-16T12:03:43.713Z,98793.31
2022-11-16T12:06:29.345Z,98794.75
2022-11-16T12:09:14.684Z,98792.00
2022-11-16T12:11:59.963Z,98794.75
2022-11-16T12:14:39.649Z,98794.31
2022-11-16T12:17:09.723Z,98794.13
2022-11-16T12:19:48.383Z,98794.13
2022-11-16T12:22:38.266Z,98788.38
2022-11-16T12:25:26.137Z,98784.78
2022-11-16T12:28:04.123Z,98791.72
2022-11-16T12:30:38.937Z,98788.75
2022-11-16T12:33:36.743Z,98784.25
2022-11-16T12:36:28.181Z,98785.09
2022-11-16T12:39:34.202Z,98787.66
2022-11-16T12:42:31.517Z,98788.97
2022-11-16T12:45:19.447Z,98785.78
2022-11-16T12:48:19.740Z,98779.84
2022-11-16T12:51:31.655Z,98777.53
2022-11-16T12:54:17.653Z,98778.81
2022-11-16T12:57:22.944Z,98780.41
2022-11-16T13:00:04.801Z,98779.06
2022-11-16T13:02:40.642Z,98783.53
2022-11-16T13:05:13.354Z,98783.09
2022-11-16T13:07:45.887Z,98781.50
2022-11-16T13:10:33.754Z,98783.44
2022-11-16T13:15:53.018Z,98782.75
2022-11-16T13:18:23.025Z,98782.41
2022-11-16T13:21:01.420Z,98779.53
2022-11-16T13:23:32.367Z,98773.75
2022-11-16T13:26:22.009Z,98768.47
2022-11-16T13:29:20.416Z,98770.59
2022-11-16T13:31:52.496Z,98773.53
2022-11-16T13:34:33.876Z,98769.72
2022-11-16T13:37:00.748Z,98771.50
2022-11-16T13:39:58.382Z,98769.72
2022-11-16T13:42:30.217Z,98762.81
2022-11-16T13:45:08.836Z,98759.78
2022-11-16T13:47:37.262Z,98757.53
2022-11-16T13:50:16.715Z,98764.63
2022-11-16T13:55:35.761Z,98764.06
2022-11-16T13:58:06.800Z,98762.28
2022-11-16T14:00:36.708Z,98758.44
2022-11-16T14:03:18.744Z,98759.66
2022-11-16T14:05:48.394Z,98758.41
2022-11-16T14:08:24.214Z,98757.78
2022-11-16T14:10:53.621Z,98756.63
2022-11-16T14:13:41.523Z,98755.72
2022-11-16T14:16:21.455Z,98751.44
2022-11-16T14:18:54.501Z,98744.22
2022-11-16T14:21:26.700Z,98739.16
2022-11-16T14:24:10.367Z,98740.28
2022-11-16T14:26:49.098Z,98740.63
2022-11-16T14:29:39.451Z,98739.47
2022-11-16T14:32:27.050Z,98733.28
2022-11-16T14:34:56.668Z,98737.47
2022-11-16T14:37:24.509Z,98740.41
2022-11-16T14:39:53.788Z,98730.03
2022-11-16T14:42:38.086Z,98731.16
2022-11-16T14:45:23.786Z,98726.97
2022-11-16T14:48:21.473Z,98730.38
2022-11-16T14:51:19.528Z,98725.97
2022-11-16T14:53:53.565Z,98726.06
2022-11-16T14:56:21.083Z,98716.63
2022-11-16T14:59:01.035Z,98720.91
2022-11-16T15:01:37.050Z,98725.97
2022-11-16T15:04:09.434Z,98727.00
2022-11-16T15:06:58.517Z,98714.13
2022-11-16T15:09:38.209Z,98723.63
2022-11-16T15:12:29.945Z,98720.81
2022-11-16T15:15:01.205Z,98720.81
2022-11-16T15:17:32.955Z,98722.69
2022-11-16T15:20:04.054Z,98724.63
2022-11-16T15:22:39.263Z,98728.34
2022-11-16T15:25:06.341Z,98719.31
2022-11-16T15:27:43.024Z,98719.78
2022-11-16T15:30:38.061Z,98724.06
2022-11-16T15:33:11.366Z,98718.06
2022-11-16T15:35:38.104Z,98715.69
2022-11-16T15:38:04.921Z,98713.09
2022-11-16T15:40:32.725Z,98711.28
2022-11-16T15:43:02.586Z,98712.56
2022-11-16T15:45:32.933Z,98708.16
2022-11-16T15:48:01.889Z,98713.13
2022-11-16T15:50:29.222Z,98710.97
2022-11-16T15:52:57.160Z,98706.69
2022-11-16T15:55:31.917Z,98702.28
2022-11-16T15:58:03.988Z,98703.31
2022-11-16T16:00:35.110Z,98707.03
2022-11-16T16:03:35.200Z,98702.94
2022-11-16T16:06:04.118Z,98698.81
2022-11-16T16:08:39.044Z,98699.94
2022-11-16T16:11:12.756Z,98699.03
2022-11-16T16:13:42.136Z,98699.34
2022-11-16T16:16:29.552Z,98692.16
2022-11-16T16:19:06.660Z,98691.72
2022-11-16T16:21:45.624Z,98689.13
2022-11-16T16:24:38.315Z,98692.63
2022-11-16T16:27:17.344Z,98699.47
2022-11-16T16:29:45.429Z,98699.94
2022-11-16T16:32:16.271Z,98694.50
2022-11-16T16:34:43.990Z,98689.56
2022-11-16T16:37:16.046Z,98690.31
2022-11-16T16:39:42.825Z,98691.66
2022-11-16T16:42:12.905Z,98688.28
2022-11-16T16:44:40.667Z,98690.78
2022-11-16T16:47:07.659Z,98695.16
2022-11-16T16:49:34.996Z,98684.03
2022-11-16T16:52:01.812Z,98688.09
2022-11-16T16:54:28.726Z,98684.84
2022-11-16T16:56:57.414Z,98685.19
2022-11-16T16:59:25.999Z,98685.97
2022-11-16T17:01:53.038Z,98680.53
2022-11-16T17:04:20.147Z,98675.34
2022-11-16T17:06:48.215Z,98669.63
2022-11-16T17:09:16.506Z,98679.09
2022-11-16T17:11:44.638Z,98685.06
2022-11-16T17:14:11.409Z,98687.44
2022-11-16T17:16:38.155Z,98684.84
2022-11-16T17:19:05.632Z,98684.06
2022-11-16T17:21:32.990Z,98679.53
2022-11-16T17:23:59.749Z,98669.38
2022-11-16T17:26:29.448Z,98676.72
2022-11-16T17:28:57.997Z,98680.13
2022-11-16T17:31:25.866Z,98684.28
2022-11-16T17:33:52.768Z,98677.06
2022-11-16T17:36:21.075Z,98686.97
2022-11-16T17:38:48.409Z,98678.63
2022-11-16T17:41:18.057Z,98670.31
2022-11-16T17:43:47.184Z,98674.34
2022-11-16T17:46:16.453Z,98674.34
2022-11-16T17:48:44.931Z,98680.34
2022-11-16T17:51:12.956Z,98681.00
2022-11-16T17:53:40.837Z,98682.91
2022-11-16T17:56:10.663Z,98678.09
2022-11-16T17:58:37.324Z,98682.22
2022-11-16T18:01:04.656Z,98683.25
2022-11-16T18:03:31.762Z,98686.63
2022-11-16T18:06:04.974Z,98680.19
2022-11-16T18:08:36.412Z,98676.59
2022-11-16T18:11:14.985Z,98679.75
2022-11-16T18:13:42.394Z,98677.63
2022-11-16T18:16:17.517Z,98680.00
2022-11-16T18:18:45.749Z,98672.75
2022-11-16T18:21:20.009Z,98678.63
2022-11-16T18:23:48.405Z,98675.34
2022-11-16T18:26:17.424Z,98672.19
2022-11-16T18:28:48.090Z,98673.44
2022-11-16T18:31:17.082Z,98667.94
2022-11-16T18:33:44.659Z,98671.66
2022-11-16T18:36:12.616Z,98682.03
2022-11-16T18:38:39.587Z,98681.53
2022-11-16T18:41:12.353Z,98674.47
2022-11-16T18:43:49.505Z,98683.91
2022-11-16T18:46:16.783Z,98676.50
2022-11-16T18:48:43.522Z,98677.06
2022-11-16T18:51:11.279Z,98675.50
2022-11-16T18:53:38.452Z,98677.06
2022-11-16T18:56:05.817Z,98674.22
2022-11-16T18:58:49.809Z,98667.16
2022-11-16T19:01:19.258Z,98666.56
2022-11-16T19:03:46.276Z,98663.00
2022-11-16T19:06:15.667Z,98664.44
2022-11-16T19:08:43.192Z,98660.59
2022-11-16T19:11:15.273Z,98665.44
2022-11-16T19:13:43.814Z,98666.09
2022-11-16T19:16:12.678Z,98667.47
2022-11-16T19:18:39.865Z,98665.19
2022-11-16T19:21:12.177Z,98664.75
2022-11-16T19:23:43.671Z,98667.13
2022-11-16T19:26:12.742Z,98664.66
2022-11-16T19:28:41.215Z,98675.00
2022-11-16T19:31:16.743Z,98668.72
2022-11-16T19:33:44.548Z,98671.06
2022-11-16T19:36:17.313Z,98672.91
2022-11-16T19:38:45.771Z,98672.75
2022-11-16T19:41:14.405Z,98674.31
2022-11-16T19:43:41.539Z,98672.31
2022-11-16T19:46:10.706Z,98672.53
2022-11-16T19:48:38.285Z,98675.91
2022-11-16T19:51:09.568Z,98675.91
2022-11-16T19:53:36.859Z,98677.28
2022-11-16T19:56:05.144Z,98671.50
2022-11-16T19:58:32.171Z,98672.31
2022-11-16T20:01:12.686Z,98668.03
2022-11-16T20:03:40.582Z,98671.50
2022-11-16T20:06:31.457Z,98668.03
2022-11-16T20:09:08.490Z,98667.56
2022-11-16T20:11:37.006Z,98661.72
2022-11-16T20:14:06.365Z,98679.50
2022-11-16T20:16:39.106Z,98674.78
2022-11-16T20:19:08.348Z,98680.44
2022-11-16T20:21:37.685Z,98667.47
2022-11-16T20:24:07.287Z,98682.00
2022-11-16T20:26:35.662Z,98671.16
2022-11-16T20:29:04.239Z,98669.72
2022-11-16T20:31:33.272Z,98668.72
2022-11-16T20:34:02.362Z,98665.53
2022-11-16T20:36:31.129Z,98656.75
2022-11-16T20:38:59.575Z,98652.72
2022-11-16T20:41:31.283Z,98660.50
2022-11-16T20:43:59.808Z,98653.50
2022-11-16T20:46:28.493Z,98656.41
2022-11-16T20:48:57.444Z,98657.69
2022-11-16T20:51:25.418Z,98645.03
2022-11-16T20:53:52.570Z,98640.41
2022-11-16T20:56:20.569Z,98628.22
2022-11-16T20:58:48.418Z,98628.44
2022-11-16T21:01:16.405Z,98630.03
2022-11-16T21:03:44.747Z,98625.31
2022-11-16T21:06:12.883Z,98633.19
2022-11-16T21:08:40.541Z,98633.13
2022-11-16T21:11:19.063Z,98625.88
2022-11-16T21:14:04.954Z,98613.09
2022-11-16T21:16:32.736Z,98621.19
2022-11-16T21:19:01.065Z,98627.94
2022-11-16T21:21:28.321Z,98619.13
2022-11-16T21:23:55.194Z,98612.84
2022-11-16T21:26:27.452Z,98618.03
2022-11-16T21:28:54.489Z,98614.44
2022-11-16T21:31:25.733Z,98619.28
2022-11-16T21:33:53.567Z,98606.41
2022-11-16T21:36:22.923Z,98602.94
2022-11-16T21:38:50.095Z,98598.88
2022-11-16T21:41:17.986Z,98599.19
2022-11-16T21:43:45.428Z,98602.34
2022-11-16T21:46:19.732Z,98604.06
2022-11-16T21:48:48.763Z,98584.38
2022-11-16T21:51:18.271Z,98601.00
2022-11-16T21:53:45.625Z,98599.22
2022-11-16T21:56:18.136Z,98597.28
2022-11-16T21:58:45.474Z,98581.28
2022-11-16T22:01:16.505Z,98594.69
2022-11-16T22:03:43.387Z,98584.47
2022-11-16T22:06:32.639Z,98595.72
2022-11-16T22:08:59.468Z,98571.09
2022-11-16T22:11:26.433Z,98575.25
2022-11-16T22:13:53.071Z,98577.63
2022-11-16T22:16:23.314Z,98569.63
2022-11-16T22:18:50.291Z,98572.31
2022-11-16T22:21:17.157Z,98567.72
2022-11-16T22:23:43.881Z,98565.66
2022-11-16T22:26:13.384Z,98568.69
2022-11-16T22:28:40.402Z,98565.22
2022-11-16T22:31:10.988Z,98564.41
2022-11-16T22:33:38.326Z,98569.28
2022-11-16T22:36:06.053Z,98572.97
2022-11-16T22:38:34.313Z,98575.03
2022-11-16T22:41:01.086Z,98575.81
2022-11-16T22:43:30.128Z,98576.84
2022-11-16T22:46:02.554Z,98573.22
2022-11-16T22:48:34.837Z,98571.66
2022-11-16T22:51:16.512Z,98581.00
2022-11-16T22:53:43.203Z,98578.41
2022-11-16T22:56:10.598Z,98580.75
2022-11-16T22:58:40.472Z,98581.53
2022-11-16T23:01:09.013Z,98581.09
2022-11-16T23:03:37.036Z,98581.09
2022-11-16T23:06:04.711Z,98584.47
2022-11-16T23:08:31.938Z,98589.06
2022-11-16T23:11:40.530Z,98598.88
2022-11-16T23:14:29.716Z,98600.56
2022-11-16T23:16:56.749Z,98601.56
2022-11-16T23:19:42.475Z,98605.75
2022-11-16T23:22:33.384Z,98598.88
2022-11-16T23:25:18.970Z,98598.09
2022-11-16T23:28:04.979Z,98592.22
2022-11-16T23:30:32.176Z,98594.03
2022-11-16T23:32:59.162Z,98596.63
2022-11-16T23:35:25.865Z,98593.03
2022-11-16T23:38:00.885Z,98598.09
2022-11-16T23:40:30.701Z,98592.22
2022-11-16T23:43:16.746Z,98593.56
2022-11-16T23:45:44.572Z,98588.63
2022-11-16T23:48:15.284Z,98594.59
2022-11-16T23:50:42.516Z,98590.97
2022-11-16T23:53:10.090Z,98594.16
2022-11-16T23:55:40.874Z,98592.56
2022-11-16T23:58:11.892Z,98596.16
